sensor_id;sensor_type;location;lat;lon;timestamp;temperature;humidity
32097;DHT22;18610;49.916;8.284;2023-08-12T00:01:01;20.00;99.90
32097;DHT22;18610;49.916;8.284;2023-08-12T00:03:27;19.90;99.90
32097;DHT22;18610;49.916;8.284;2023-08-12T00:05:54;19.90;99.90
32097;DHT22;18610;49.916;8.284;2023-08-12T00:08:22;19.90;99.90
32097;DHT22;18610;49.916;8.284;2023-08-12T00:10:48;19.90;99.90
32097;DHT22;18610;49.916;8.284;2023-08-12T00:13:15;19.90;99.90
32097;DHT22;18610;49.916;8.284;2023-08-12T00:15:43;20.00;99.90
32097;DHT22;18610;49.916;8.284;2023-08-12T00:18:11;19.90;99.90
32097;DHT22;18610;49.916;8.284;2023-08-12T00:20:37;20.00;99.90
32097;DHT22;18610;49.916;8.284;2023-08-12T00:23:04;20.00;99.90
32097;DHT22;18610;49.916;8.284;2023-08-12T00:25:31;19.90;99.90
32097;DHT22;18610;49.916;8.284;2023-08-12T00:27:58;19.90;99.90
32097;DHT22;18610;49.916;8.284;2023-08-12T00:30:24;19.80;99.90
32097;DHT22;18610;49.916;8.284;2023-08-12T00:32:51;19.80;99.90
32097;DHT22;18610;49.916;8.284;2023-08-12T00:35:19;19.80;99.90
32097;DHT22;18610;49.916;8.284;2023-08-12T00:37:46;19.70;99.90
32097;DHT22;18610;49.916;8.284;2023-08-12T00:40:13;19.80;99.90
32097;DHT22;18610;49.916;8.284;2023-08-12T00:42:40;19.80;99.90
32097;DHT22;18610;49.916;8.284;2023-08-12T00:45:09;19.80;99.90
32097;DHT22;18610;49.916;8.284;2023-08-12T00:47:38;19.80;99.90
32097;DHT22;18610;49.916;8.284;2023-08-12T00:50:06;19.90;99.90
32097;DHT22;18610;49.916;8.284;2023-08-12T00:52:35;19.90;99.90
32097;DHT22;18610;49.916;8.284;2023-08-12T00:55:02;19.90;99.90
32097;DHT22;18610;49.916;8.284;2023-08-12T00:57:29;19.90;99.90
32097;DHT22;18610;49.916;8.284;2023-08-12T00:59:56;19.90;99.90
32097;DHT22;18610;49.916;8.284;2023-08-12T01:02:22;20.00;99.90
32097;DHT22;18610;49.916;8.284;2023-08-12T01:04:49;20.00;99.90
32097;DHT22;18610;49.916;8.284;2023-08-12T01:07:16;20.00;99.90
32097;DHT22;18610;49.916;8.284;2023-08-12T01:09:44;20.00;99.90
32097;DHT22;18610;49.916;8.284;2023-08-12T01:12:13;20.00;99.90
32097;DHT22;18610;49.916;8.284;2023-08-12T01:14:45;20.00;99.90
32097;DHT22;18610;49.916;8.284;2023-08-12T01:17:15;20.10;99.90
32097;DHT22;18610;49.916;8.284;2023-08-12T01:19:43;20.10;99.90
32097;DHT22;18610;49.916;8.284;2023-08-12T01:22:11;20.10;99.90
32097;DHT22;18610;49.916;8.284;2023-08-12T01:24:40;20.00;99.90
32097;DHT22;18610;49.916;8.284;2023-08-12T01:27:08;20.00;99.90
32097;DHT22;18610;49.916;8.284;2023-08-12T01:29:37;20.10;99.90
32097;DHT22;18610;49.916;8.284;2023-08-12T01:32:08;20.10;99.90
32097;DHT22;18610;49.916;8.284;2023-08-12T01:34:47;20.10;99.90
32097;DHT22;18610;49.916;8.284;2023-08-12T01:37:22;20.10;99.90
32097;DHT22;18610;49.916;8.284;2023-08-12T01:39:52;20.10;99.90
32097;DHT22;18610;49.916;8.284;2023-08-12T01:42:20;20.10;99.90
32097;DHT22;18610;49.916;8.284;2023-08-12T01:44:48;20.10;99.90
32097;DHT22;18610;49.916;8.284;2023-08-12T01:47:15;20.10;99.90
32097;DHT22;18610;49.916;8.284;2023-08-12T01:49:42;20.10;99.90
32097;DHT22;18610;49.916;8.284;2023-08-12T01:52:09;20.10;99.90
32097;DHT22;18610;49.916;8.284;2023-08-12T01:54:35;20.10;99.90
32097;DHT22;18610;49.916;8.284;2023-08-12T01:57:04;20.00;99.90
32097;DHT22;18610;49.916;8.284;2023-08-12T01:59:32;20.00;99.90
32097;DHT22;18610;49.916;8.284;2023-08-12T02:01:59;20.00;99.90
32097;DHT22;18610;49.916;8.284;2023-08-12T02:04:26;20.00;99.90
32097;DHT22;18610;49.916;8.284;2023-08-12T02:06:53;20.00;99.90
32097;DHT22;18610;49.916;8.284;2023-08-12T02:09:20;20.00;99.90
32097;DHT22;18610;49.916;8.284;2023-08-12T02:11:47;20.10;99.90
32097;DHT22;18610;49.916;8.284;2023-08-12T02:14:15;20.10;99.90
32097;DHT22;18610;49.916;8.284;2023-08-12T02:16:42;20.10;99.90
32097;DHT22;18610;49.916;8.284;2023-08-12T02:19:08;20.10;99.90
32097;DHT22;18610;49.916;8.284;2023-08-12T02:21:35;20.20;99.90
32097;DHT22;18610;49.916;8.284;2023-08-12T02:24:02;20.20;99.90
32097;DHT22;18610;49.916;8.284;2023-08-12T02:26:29;20.20;99.90
32097;DHT22;18610;49.916;8.284;2023-08-12T02:28:56;20.20;99.90
32097;DHT22;18610;49.916;8.284;2023-08-12T02:31:23;20.20;99.90
32097;DHT22;18610;49.916;8.284;2023-08-12T02:33:50;20.20;99.90
32097;DHT22;18610;49.916;8.284;2023-08-12T02:36:17;20.10;99.90
32097;DHT22;18610;49.916;8.284;2023-08-12T02:38:44;20.10;99.90
32097;DHT22;18610;49.916;8.284;2023-08-12T02:41:11;20.10;99.90
32097;DHT22;18610;49.916;8.284;2023-08-12T02:43:41;20.10;99.90
32097;DHT22;18610;49.916;8.284;2023-08-12T02:46:07;20.10;99.90
32097;DHT22;18610;49.916;8.284;2023-08-12T02:48:36;20.00;99.90
32097;DHT22;18610;49.916;8.284;2023-08-12T02:51:02;19.90;99.90
32097;DHT22;18610;49.916;8.284;2023-08-12T02:53:29;19.90;99.90
32097;DHT22;18610;49.916;8.284;2023-08-12T02:55:56;19.90;99.90
32097;DHT22;18610;49.916;8.284;2023-08-12T02:58:22;19.80;99.90
32097;DHT22;18610;49.916;8.284;2023-08-12T03:00:49;19.80;99.90
32097;DHT22;18610;49.916;8.284;2023-08-12T03:03:16;19.80;99.90
32097;DHT22;18610;49.916;8.284;2023-08-12T03:05:46;19.80;99.90
32097;DHT22;18610;49.916;8.284;2023-08-12T03:08:13;19.80;99.90
32097;DHT22;18610;49.916;8.284;2023-08-12T03:10:41;19.90;99.90
32097;DHT22;18610;49.916;8.284;2023-08-12T03:13:08;19.90;99.90
32097;DHT22;18610;49.916;8.284;2023-08-12T03:15:34;19.90;99.90
32097;DHT22;18610;49.916;8.284;2023-08-12T03:18:04;19.90;99.90
32097;DHT22;18610;49.916;8.284;2023-08-12T03:20:31;19.90;99.90
32097;DHT22;18610;49.916;8.284;2023-08-12T03:22:59;19.90;99.90
32097;DHT22;18610;49.916;8.284;2023-08-12T03:25:26;19.90;99.90
32097;DHT22;18610;49.916;8.284;2023-08-12T03:27:53;19.90;99.90
32097;DHT22;18610;49.916;8.284;2023-08-12T03:30:19;19.90;99.90
32097;DHT22;18610;49.916;8.284;2023-08-12T03:32:46;19.90;99.90
32097;DHT22;18610;49.916;8.284;2023-08-12T03:35:13;19.90;99.90
32097;DHT22;18610;49.916;8.284;2023-08-12T03:37:39;20.00;99.90
32097;DHT22;18610;49.916;8.284;2023-08-12T03:40:08;20.00;99.90
32097;DHT22;18610;49.916;8.284;2023-08-12T03:42:35;20.00;99.90
32097;DHT22;18610;49.916;8.284;2023-08-12T03:45:02;20.10;99.90
32097;DHT22;18610;49.916;8.284;2023-08-12T03:47:29;20.10;99.90
32097;DHT22;18610;49.916;8.284;2023-08-12T03:49:56;20.10;99.90
32097;DHT22;18610;49.916;8.284;2023-08-12T03:52:22;20.10;99.90
32097;DHT22;18610;49.916;8.284;2023-08-12T03:54:51;20.10;99.90
32097;DHT22;18610;49.916;8.284;2023-08-12T03:57:19;20.00;99.90
32097;DHT22;18610;49.916;8.284;2023-08-12T03:59:46;20.10;99.90
32097;DHT22;18610;49.916;8.284;2023-08-12T04:02:13;20.10;99.90
32097;DHT22;18610;49.916;8.284;2023-08-12T04:04:39;20.10;99.90
32097;DHT22;18610;49.916;8.284;2023-08-12T04:07:08;20.10;99.90
32097;DHT22;18610;49.916;8.284;2023-08-12T04:09:34;20.10;99.90
32097;DHT22;18610;49.916;8.284;2023-08-12T04:12:01;20.10;99.90
32097;DHT22;18610;49.916;8.284;2023-08-12T04:14:33;20.10;99.90
32097;DHT22;18610;49.916;8.284;2023-08-12T04:17:00;20.10;99.90
32097;DHT22;18610;49.916;8.284;2023-08-12T04:19:26;20.10;99.90
32097;DHT22;18610;49.916;8.284;2023-08-12T04:21:53;20.10;99.90
32097;DHT22;18610;49.916;8.284;2023-08-12T04:24:20;20.10;99.90
32097;DHT22;18610;49.916;8.284;2023-08-12T04:26:46;20.10;99.90
32097;DHT22;18610;49.916;8.284;2023-08-12T04:29:13;20.10;99.90
32097;DHT22;18610;49.916;8.284;2023-08-12T04:31:41;20.10;99.90
32097;DHT22;18610;49.916;8.284;2023-08-12T04:34:08;20.10;99.90
32097;DHT22;18610;49.916;8.284;2023-08-12T04:36:35;20.10;99.90
32097;DHT22;18610;49.916;8.284;2023-08-12T04:39:01;20.10;99.90
32097;DHT22;18610;49.916;8.284;2023-08-12T04:41:28;20.10;99.90
32097;DHT22;18610;49.916;8.284;2023-08-12T04:43:55;20.10;99.90
32097;DHT22;18610;49.916;8.284;2023-08-12T04:46:22;20.00;99.90
32097;DHT22;18610;49.916;8.284;2023-08-12T04:48:50;20.00;99.90
32097;DHT22;18610;49.916;8.284;2023-08-12T04:51:17;20.00;99.90
32097;DHT22;18610;49.916;8.284;2023-08-12T04:53:44;20.00;99.90
32097;DHT22;18610;49.916;8.284;2023-08-12T04:56:10;20.10;99.90
32097;DHT22;18610;49.916;8.284;2023-08-12T04:58:37;20.10;99.90
32097;DHT22;18610;49.916;8.284;2023-08-12T05:01:04;20.10;99.90
32097;DHT22;18610;49.916;8.284;2023-08-12T05:03:30;20.10;99.90
32097;DHT22;18610;49.916;8.284;2023-08-12T05:05:58;20.10;99.90
32097;DHT22;18610;49.916;8.284;2023-08-12T05:08:25;20.10;99.90
32097;DHT22;18610;49.916;8.284;2023-08-12T05:10:52;20.10;99.90
32097;DHT22;18610;49.916;8.284;2023-08-12T05:13:19;20.10;99.90
32097;DHT22;18610;49.916;8.284;2023-08-12T05:15:46;20.10;99.90
32097;DHT22;18610;49.916;8.284;2023-08-12T05:18:16;20.10;99.90
32097;DHT22;18610;49.916;8.284;2023-08-12T05:20:43;20.10;99.90
32097;DHT22;18610;49.916;8.284;2023-08-12T05:23:11;20.10;99.90
32097;DHT22;18610;49.916;8.284;2023-08-12T05:25:39;20.20;99.90
32097;DHT22;18610;49.916;8.284;2023-08-12T05:28:06;20.20;99.90
32097;DHT22;18610;49.916;8.284;2023-08-12T05:30:33;20.20;99.90
32097;DHT22;18610;49.916;8.284;2023-08-12T05:32:59;20.30;99.90
32097;DHT22;18610;49.916;8.284;2023-08-12T05:35:27;20.40;99.90
32097;DHT22;18610;49.916;8.284;2023-08-12T05:37:53;20.40;99.90
32097;DHT22;18610;49.916;8.284;2023-08-12T05:40:21;20.40;99.90
32097;DHT22;18610;49.916;8.284;2023-08-12T05:42:48;20.50;99.90
32097;DHT22;18610;49.916;8.284;2023-08-12T05:45:15;20.50;99.90
32097;DHT22;18610;49.916;8.284;2023-08-12T05:47:41;20.50;99.90
32097;DHT22;18610;49.916;8.284;2023-08-12T05:50:09;20.40;99.90
32097;DHT22;18610;49.916;8.284;2023-08-12T05:52:35;20.50;99.90
32097;DHT22;18610;49.916;8.284;2023-08-12T05:55:03;20.60;99.90
32097;DHT22;18610;49.916;8.284;2023-08-12T05:57:31;20.70;99.90
32097;DHT22;18610;49.916;8.284;2023-08-12T05:59:58;20.80;99.90
32097;DHT22;18610;49.916;8.284;2023-08-12T06:02:25;20.90;99.90
32097;DHT22;18610;49.916;8.284;2023-08-12T06:15:21;21.40;99.90
32097;DHT22;18610;49.916;8.284;2023-08-12T06:17:48;21.40;99.90
32097;DHT22;18610;49.916;8.284;2023-08-12T06:20:14;21.50;99.90
32097;DHT22;18610;49.916;8.284;2023-08-12T06:22:41;21.70;99.90
32097;DHT22;18610;49.916;8.284;2023-08-12T06:25:08;21.80;99.90
32097;DHT22;18610;49.916;8.284;2023-08-12T06:27:35;21.80;99.90
32097;DHT22;18610;49.916;8.284;2023-08-12T06:30:02;21.90;99.90
32097;DHT22;18610;49.916;8.284;2023-08-12T06:32:30;21.90;99.90
32097;DHT22;18610;49.916;8.284;2023-08-12T06:34:56;22.00;99.90
32097;DHT22;18610;49.916;8.284;2023-08-12T06:37:23;22.20;99.90
32097;DHT22;18610;49.916;8.284;2023-08-12T06:39:50;22.40;99.90
32097;DHT22;18610;49.916;8.284;2023-08-12T06:42:16;22.60;99.90
32097;DHT22;18610;49.916;8.284;2023-08-12T06:44:44;22.70;99.90
32097;DHT22;18610;49.916;8.284;2023-08-12T06:47:11;22.80;99.90
32097;DHT22;18610;49.916;8.284;2023-08-12T06:49:39;23.00;99.90
32097;DHT22;18610;49.916;8.284;2023-08-12T06:52:05;23.00;99.90
32097;DHT22;18610;49.916;8.284;2023-08-12T06:54:32;23.10;99.90
32097;DHT22;18610;49.916;8.284;2023-08-12T06:56:59;23.10;99.90
32097;DHT22;18610;49.916;8.284;2023-08-12T06:59:25;23.20;99.90
32097;DHT22;18610;49.916;8.284;2023-08-12T07:01:52;23.30;99.90
32097;DHT22;18610;49.916;8.284;2023-08-12T07:04:19;23.40;99.90
32097;DHT22;18610;49.916;8.284;2023-08-12T07:06:47;23.40;99.90
32097;DHT22;18610;49.916;8.284;2023-08-12T07:09:14;23.40;99.90
32097;DHT22;18610;49.916;8.284;2023-08-12T07:11:41;23.30;99.90
32097;DHT22;18610;49.916;8.284;2023-08-12T07:14:08;23.40;99.90
32097;DHT22;18610;49.916;8.284;2023-08-12T07:16:34;23.40;99.90
32097;DHT22;18610;49.916;8.284;2023-08-12T07:19:01;23.50;99.90
32097;DHT22;18610;49.916;8.284;2023-08-12T07:21:28;23.60;99.90
32097;DHT22;18610;49.916;8.284;2023-08-12T07:23:56;23.70;99.90
32097;DHT22;18610;49.916;8.284;2023-08-12T07:26:22;23.70;99.90
32097;DHT22;18610;49.916;8.284;2023-08-12T07:28:49;23.90;99.90
32097;DHT22;18610;49.916;8.284;2023-08-12T07:31:16;23.90;99.90
32097;DHT22;18610;49.916;8.284;2023-08-12T07:33:42;24.00;99.90
32097;DHT22;18610;49.916;8.284;2023-08-12T07:36:09;24.20;99.90
32097;DHT22;18610;49.916;8.284;2023-08-12T07:38:36;24.20;99.90
32097;DHT22;18610;49.916;8.284;2023-08-12T07:41:04;24.20;99.90
32097;DHT22;18610;49.916;8.284;2023-08-12T07:43:30;24.20;99.90
32097;DHT22;18610;49.916;8.284;2023-08-12T07:45:57;24.10;99.90
32097;DHT22;18610;49.916;8.284;2023-08-12T07:48:24;24.20;99.90
32097;DHT22;18610;49.916;8.284;2023-08-12T07:50:55;24.20;99.90
32097;DHT22;18610;49.916;8.284;2023-08-12T07:53:21;24.30;99.90
32097;DHT22;18610;49.916;8.284;2023-08-12T07:55:48;24.40;99.90
32097;DHT22;18610;49.916;8.284;2023-08-12T07:58:19;24.40;99.90
32097;DHT22;18610;49.916;8.284;2023-08-12T08:00:45;24.60;99.90
32097;DHT22;18610;49.916;8.284;2023-08-12T08:09:56;25.20;99.90
32097;DHT22;18610;49.916;8.284;2023-08-12T08:12:23;25.60;99.90
32097;DHT22;18610;49.916;8.284;2023-08-12T08:14:51;25.70;99.90
32097;DHT22;18610;49.916;8.284;2023-08-12T08:31:09;25.50;99.90
32097;DHT22;18610;49.916;8.284;2023-08-12T08:43:55;26.20;99.90
32097;DHT22;18610;49.916;8.284;2023-08-12T08:46:25;26.40;99.90
32097;DHT22;18610;49.916;8.284;2023-08-12T08:48:53;26.40;99.90
32097;DHT22;18610;49.916;8.284;2023-08-12T08:51:20;26.40;99.90
32097;DHT22;18610;49.916;8.284;2023-08-12T08:56:58;26.20;99.90
32097;DHT22;18610;49.916;8.284;2023-08-12T08:59:25;26.00;99.90
32097;DHT22;18610;49.916;8.284;2023-08-12T09:01:54;25.90;99.90
32097;DHT22;18610;49.916;8.284;2023-08-12T09:04:21;25.80;99.90
32097;DHT22;18610;49.916;8.284;2023-08-12T09:06:49;25.80;99.90
32097;DHT22;18610;49.916;8.284;2023-08-12T09:09:19;26.00;99.90
32097;DHT22;18610;49.916;8.284;2023-08-12T09:11:47;26.30;99.90
32097;DHT22;18610;49.916;8.284;2023-08-12T09:14:14;26.60;99.90
32097;DHT22;18610;49.916;8.284;2023-08-12T09:16:41;26.60;99.90
32097;DHT22;18610;49.916;8.284;2023-08-12T09:19:09;26.80;99.90
32097;DHT22;18610;49.916;8.284;2023-08-12T09:21:36;26.90;99.90
32097;DHT22;18610;49.916;8.284;2023-08-12T09:24:03;27.10;99.90
32097;DHT22;18610;49.916;8.284;2023-08-12T09:26:30;27.50;99.90
32097;DHT22;18610;49.916;8.284;2023-08-12T09:28:59;28.00;99.90
32097;DHT22;18610;49.916;8.284;2023-08-12T09:31:27;28.30;99.90
32097;DHT22;18610;49.916;8.284;2023-08-12T09:33:57;28.40;99.90
32097;DHT22;18610;49.916;8.284;2023-08-12T09:36:27;28.40;99.90
32097;DHT22;18610;49.916;8.284;2023-08-12T09:38:54;28.10;99.90
32097;DHT22;18610;49.916;8.284;2023-08-12T09:41:22;28.00;99.90
32097;DHT22;18610;49.916;8.284;2023-08-12T09:43:51;27.80;99.90
32097;DHT22;18610;49.916;8.284;2023-08-12T09:46:18;27.60;99.90
32097;DHT22;18610;49.916;8.284;2023-08-12T09:48:47;27.40;99.90
32097;DHT22;18610;49.916;8.284;2023-08-12T09:51:15;27.10;99.90
32097;DHT22;18610;49.916;8.284;2023-08-12T09:53:43;26.70;99.90
32097;DHT22;18610;49.916;8.284;2023-08-12T09:56:12;26.40;99.90
32097;DHT22;18610;49.916;8.284;2023-08-12T09:58:41;26.10;99.90
32097;DHT22;18610;49.916;8.284;2023-08-12T10:01:10;25.90;99.90
32097;DHT22;18610;49.916;8.284;2023-08-12T10:03:38;25.60;99.90
32097;DHT22;18610;49.916;8.284;2023-08-12T10:06:06;25.20;99.90
32097;DHT22;18610;49.916;8.284;2023-08-12T10:08:35;24.90;99.90
32097;DHT22;18610;49.916;8.284;2023-08-12T10:11:03;24.50;99.90
32097;DHT22;18610;49.916;8.284;2023-08-12T10:13:30;24.30;99.90
32097;DHT22;18610;49.916;8.284;2023-08-12T10:15:57;24.00;99.90
32097;DHT22;18610;49.916;8.284;2023-08-12T10:18:26;23.80;99.90
32097;DHT22;18610;49.916;8.284;2023-08-12T10:20:54;23.60;99.90
32097;DHT22;18610;49.916;8.284;2023-08-12T10:23:24;23.40;99.90
32097;DHT22;18610;49.916;8.284;2023-08-12T10:25:53;23.20;99.90
32097;DHT22;18610;49.916;8.284;2023-08-12T10:28:22;23.10;99.90
32097;DHT22;18610;49.916;8.284;2023-08-12T10:30:49;23.00;99.90
32097;DHT22;18610;49.916;8.284;2023-08-12T10:33:16;22.90;99.90
32097;DHT22;18610;49.916;8.284;2023-08-12T10:35:45;22.90;99.90
32097;DHT22;18610;49.916;8.284;2023-08-12T10:38:17;22.80;99.90
32097;DHT22;18610;49.916;8.284;2023-08-12T10:40:44;22.80;99.90
32097;DHT22;18610;49.916;8.284;2023-08-12T10:43:11;22.70;99.90
32097;DHT22;18610;49.916;8.284;2023-08-12T10:45:44;22.70;99.90
32097;DHT22;18610;49.916;8.284;2023-08-12T10:48:17;22.70;99.90
32097;DHT22;18610;49.916;8.284;2023-08-12T10:50:45;22.70;99.90
32097;DHT22;18610;49.916;8.284;2023-08-12T10:53:24;22.60;99.90
32097;DHT22;18610;49.916;8.284;2023-08-12T10:55:56;22.60;99.90
32097;DHT22;18610;49.916;8.284;2023-08-12T10:58:28;22.60;99.90
32097;DHT22;18610;49.916;8.284;2023-08-12T11:00:59;22.60;99.90
32097;DHT22;18610;49.916;8.284;2023-08-12T11:03:25;22.60;99.90
32097;DHT22;18610;49.916;8.284;2023-08-12T11:05:53;22.70;99.90
32097;DHT22;18610;49.916;8.284;2023-08-12T11:08:25;22.80;99.90
32097;DHT22;18610;49.916;8.284;2023-08-12T11:10:54;22.90;99.90
32097;DHT22;18610;49.916;8.284;2023-08-12T11:13:22;23.00;99.90
32097;DHT22;18610;49.916;8.284;2023-08-12T11:15:49;23.30;99.90
32097;DHT22;18610;49.916;8.284;2023-08-12T11:18:19;23.40;99.90
32097;DHT22;18610;49.916;8.284;2023-08-12T11:20:47;23.60;99.90
32097;DHT22;18610;49.916;8.284;2023-08-12T11:23:14;23.70;99.90
32097;DHT22;18610;49.916;8.284;2023-08-12T11:25:43;23.90;99.90
32097;DHT22;18610;49.916;8.284;2023-08-12T11:28:10;23.90;99.90
32097;DHT22;18610;49.916;8.284;2023-08-12T11:30:40;24.00;99.90
32097;DHT22;18610;49.916;8.284;2023-08-12T11:33:07;24.00;99.90
32097;DHT22;18610;49.916;8.284;2023-08-12T11:35:36;24.00;99.90
32097;DHT22;18610;49.916;8.284;2023-08-12T11:38:05;24.00;99.90
32097;DHT22;18610;49.916;8.284;2023-08-12T11:40:34;24.00;99.90
32097;DHT22;18610;49.916;8.284;2023-08-12T11:43:02;23.90;99.90
32097;DHT22;18610;49.916;8.284;2023-08-12T11:45:29;23.90;99.90
32097;DHT22;18610;49.916;8.284;2023-08-12T11:47:56;23.80;99.90
32097;DHT22;18610;49.916;8.284;2023-08-12T11:50:24;23.70;99.90
32097;DHT22;18610;49.916;8.284;2023-08-12T11:52:53;23.70;99.90
32097;DHT22;18610;49.916;8.284;2023-08-12T11:55:22;23.70;99.90
32097;DHT22;18610;49.916;8.284;2023-08-12T11:57:50;23.70;99.90
32097;DHT22;18610;49.916;8.284;2023-08-12T12:00:18;23.70;99.90
32097;DHT22;18610;49.916;8.284;2023-08-12T12:02:47;23.70;99.90
32097;DHT22;18610;49.916;8.284;2023-08-12T12:05:14;23.80;99.90
32097;DHT22;18610;49.916;8.284;2023-08-12T12:07:41;23.90;99.90
32097;DHT22;18610;49.916;8.284;2023-08-12T12:10:12;24.20;99.90
32097;DHT22;18610;49.916;8.284;2023-08-12T12:12:39;24.50;99.90
32097;DHT22;18610;49.916;8.284;2023-08-12T12:15:06;24.80;99.90
32097;DHT22;18610;49.916;8.284;2023-08-12T12:17:38;25.20;99.90
32097;DHT22;18610;49.916;8.284;2023-08-12T12:20:08;25.50;99.90
32097;DHT22;18610;49.916;8.284;2023-08-12T12:22:37;25.80;99.90
32097;DHT22;18610;49.916;8.284;2023-08-12T12:25:08;25.90;99.90
32097;DHT22;18610;49.916;8.284;2023-08-12T12:27:36;26.00;99.90
32097;DHT22;18610;49.916;8.284;2023-08-12T12:30:04;26.00;99.90
32097;DHT22;18610;49.916;8.284;2023-08-12T12:32:31;25.90;99.90
32097;DHT22;18610;49.916;8.284;2023-08-12T12:34:58;25.70;99.90
32097;DHT22;18610;49.916;8.284;2023-08-12T12:37:25;25.60;99.90
32097;DHT22;18610;49.916;8.284;2023-08-12T12:39:52;25.80;99.90
32097;DHT22;18610;49.916;8.284;2023-08-12T12:42:19;26.00;99.90
32097;DHT22;18610;49.916;8.284;2023-08-12T12:44:47;26.40;99.90
32097;DHT22;18610;49.916;8.284;2023-08-12T12:47:13;26.60;99.90
32097;DHT22;18610;49.916;8.284;2023-08-12T12:49:40;26.70;99.90
32097;DHT22;18610;49.916;8.284;2023-08-12T12:52:07;27.00;99.90
32097;DHT22;18610;49.916;8.284;2023-08-12T12:54:34;27.40;99.90
32097;DHT22;18610;49.916;8.284;2023-08-12T12:57:01;27.80;99.90
32097;DHT22;18610;49.916;8.284;2023-08-12T12:59:29;28.20;99.90
32097;DHT22;18610;49.916;8.284;2023-08-12T13:01:57;28.50;99.90
32097;DHT22;18610;49.916;8.284;2023-08-12T13:04:25;28.90;99.90
32097;DHT22;18610;49.916;8.284;2023-08-12T13:06:52;29.00;99.90
32097;DHT22;18610;49.916;8.284;2023-08-12T13:09:19;29.20;99.90
32097;DHT22;18610;49.916;8.284;2023-08-12T13:11:45;29.40;99.90
32097;DHT22;18610;49.916;8.284;2023-08-12T13:14:12;29.40;99.90
32097;DHT22;18610;49.916;8.284;2023-08-12T13:16:39;29.40;99.90
32097;DHT22;18610;49.916;8.284;2023-08-12T13:19:07;29.60;99.90
32097;DHT22;18610;49.916;8.284;2023-08-12T13:21:33;29.70;99.90
32097;DHT22;18610;49.916;8.284;2023-08-12T13:24:00;29.70;99.90
32097;DHT22;18610;49.916;8.284;2023-08-12T13:26:29;29.70;99.90
32097;DHT22;18610;49.916;8.284;2023-08-12T13:28:55;29.90;99.90
32097;DHT22;18610;49.916;8.284;2023-08-12T13:31:22;29.90;99.90
32097;DHT22;18610;49.916;8.284;2023-08-12T13:33:50;29.60;99.90
32097;DHT22;18610;49.916;8.284;2023-08-12T13:36:18;29.40;99.90
32097;DHT22;18610;49.916;8.284;2023-08-12T13:38:44;29.20;99.90
32097;DHT22;18610;49.916;8.284;2023-08-12T13:41:11;29.10;99.90
32097;DHT22;18610;49.916;8.284;2023-08-12T13:43:38;29.00;99.90
32097;DHT22;18610;49.916;8.284;2023-08-12T13:46:06;28.90;99.90
32097;DHT22;18610;49.916;8.284;2023-08-12T13:48:33;28.90;99.90
32097;DHT22;18610;49.916;8.284;2023-08-12T13:51:00;28.90;99.90
32097;DHT22;18610;49.916;8.284;2023-08-12T13:53:29;28.90;99.90
32097;DHT22;18610;49.916;8.284;2023-08-12T13:55:56;28.90;99.90
32097;DHT22;18610;49.916;8.284;2023-08-12T13:58:23;29.00;99.90
32097;DHT22;18610;49.916;8.284;2023-08-12T14:00:49;29.00;99.90
32097;DHT22;18610;49.916;8.284;2023-08-12T14:03:16;29.00;99.90
32097;DHT22;18610;49.916;8.284;2023-08-12T14:05:44;28.80;99.90
32097;DHT22;18610;49.916;8.284;2023-08-12T14:08:10;28.50;99.90
32097;DHT22;18610;49.916;8.284;2023-08-12T14:10:38;28.40;99.90
32097;DHT22;18610;49.916;8.284;2023-08-12T14:13:05;28.30;99.90
32097;DHT22;18610;49.916;8.284;2023-08-12T14:15:33;28.30;99.90
32097;DHT22;18610;49.916;8.284;2023-08-12T14:18:00;28.30;99.90
32097;DHT22;18610;49.916;8.284;2023-08-12T14:20:27;28.50;99.90
32097;DHT22;18610;49.916;8.284;2023-08-12T14:22:53;28.70;99.90
32097;DHT22;18610;49.916;8.284;2023-08-12T14:25:20;29.00;99.90
32097;DHT22;18610;49.916;8.284;2023-08-12T14:27:48;29.20;99.90
32097;DHT22;18610;49.916;8.284;2023-08-12T14:30:18;29.40;99.90
32097;DHT22;18610;49.916;8.284;2023-08-12T14:32:46;29.40;99.90
32097;DHT22;18610;49.916;8.284;2023-08-12T14:35:13;29.40;99.90
32097;DHT22;18610;49.916;8.284;2023-08-12T14:37:39;29.40;99.90
32097;DHT22;18610;49.916;8.284;2023-08-12T14:40:07;29.20;99.90
32097;DHT22;18610;49.916;8.284;2023-08-12T14:42:34;29.10;99.90
32097;DHT22;18610;49.916;8.284;2023-08-12T14:45:03;29.00;99.90
32097;DHT22;18610;49.916;8.284;2023-08-12T14:47:30;28.80;98.80
32097;DHT22;18610;49.916;8.284;2023-08-12T14:49:56;28.40;99.40
32097;DHT22;18610;49.916;8.284;2023-08-12T14:52:23;28.10;99.70
32097;DHT22;18610;49.916;8.284;2023-08-12T14:54:50;27.80;99.70
32097;DHT22;18610;49.916;8.284;2023-08-12T14:57:16;27.60;99.90
32097;DHT22;18610;49.916;8.284;2023-08-12T14:59:43;27.50;99.90
32097;DHT22;18610;49.916;8.284;2023-08-12T15:02:13;27.40;99.90
32097;DHT22;18610;49.916;8.284;2023-08-12T15:04:39;27.30;99.90
32097;DHT22;18610;49.916;8.284;2023-08-12T15:07:06;27.20;99.90
32097;DHT22;18610;49.916;8.284;2023-08-12T15:09:33;27.10;99.90
32097;DHT22;18610;49.916;8.284;2023-08-12T15:12:03;27.00;99.90
32097;DHT22;18610;49.916;8.284;2023-08-12T15:14:29;26.90;99.90
32097;DHT22;18610;49.916;8.284;2023-08-12T15:16:56;26.90;99.90
32097;DHT22;18610;49.916;8.284;2023-08-12T15:19:24;26.90;99.90
32097;DHT22;18610;49.916;8.284;2023-08-12T15:21:51;26.90;99.90
32097;DHT22;18610;49.916;8.284;2023-08-12T15:24:17;26.90;99.90
32097;DHT22;18610;49.916;8.284;2023-08-12T15:26:44;26.80;99.90
32097;DHT22;18610;49.916;8.284;2023-08-12T15:29:11;26.70;99.90
32097;DHT22;18610;49.916;8.284;2023-08-12T15:32:08;26.60;99.90
32097;DHT22;18610;49.916;8.284;2023-08-12T15:34:36;26.40;99.90
32097;DHT22;18610;49.916;8.284;2023-08-12T15:37:04;26.30;99.90
32097;DHT22;18610;49.916;8.284;2023-08-12T15:39:30;26.20;99.90
32097;DHT22;18610;49.916;8.284;2023-08-12T15:41:57;26.20;99.90
32097;DHT22;18610;49.916;8.284;2023-08-12T15:44:24;26.20;99.90
32097;DHT22;18610;49.916;8.284;2023-08-12T15:46:51;26.20;99.90
32097;DHT22;18610;49.916;8.284;2023-08-12T15:49:17;26.10;99.90
32097;DHT22;18610;49.916;8.284;2023-08-12T16:05:14;26.10;99.90
32097;DHT22;18610;49.916;8.284;2023-08-12T16:07:40;26.10;99.90
32097;DHT22;18610;49.916;8.284;2023-08-12T16:10:07;26.10;99.90
32097;DHT22;18610;49.916;8.284;2023-08-12T16:12:34;26.10;99.90
32097;DHT22;18610;49.916;8.284;2023-08-12T16:15:02;26.20;99.90
32097;DHT22;18610;49.916;8.284;2023-08-12T16:17:28;26.20;99.90
32097;DHT22;18610;49.916;8.284;2023-08-12T16:19:55;26.30;99.90
32097;DHT22;18610;49.916;8.284;2023-08-12T16:22:23;26.30;99.90
32097;DHT22;18610;49.916;8.284;2023-08-12T16:24:50;26.20;99.90
32097;DHT22;18610;49.916;8.284;2023-08-12T16:27:16;26.10;99.90
32097;DHT22;18610;49.916;8.284;2023-08-12T16:29:43;26.00;99.90